sensor_id;sensor_type;location;lat;lon;timestamp;temperature;humidity
17918;DHT22;9084;50.956;3.106;2023-02-01T00:00:30;7.30;99.90
17918;DHT22;9084;50.956;3.106;2023-02-01T00:02:55;7.30;99.90
17918;DHT22;9084;50.956;3.106;2023-02-01T00:05:23;7.20;99.90
17918;DHT22;9084;50.956;3.106;2023-02-01T00:07:49;7.20;99.90
17918;DHT22;9084;50.956;3.106;2023-02-01T00:10:15;7.20;99.90
17918;DHT22;9084;50.956;3.106;2023-02-01T00:12:41;7.10;99.90
17918;DHT22;9084;50.956;3.106;2023-02-01T00:15:09;7.10;99.90
17918;DHT22;9084;50.956;3.106;2023-02-01T00:17:35;7.10;99.90
17918;DHT22;9084;50.956;3.106;2023-02-01T00:20:02;7.10;99.90
17918;DHT22;9084;50.956;3.106;2023-02-01T00:22:28;7.10;99.90
17918;DHT22;9084;50.956;3.106;2023-02-01T00:24:54;7.00;99.90
17918;DHT22;9084;50.956;3.106;2023-02-01T00:27:24;6.90;99.90
17918;DHT22;9084;50.956;3.106;2023-02-01T00:29:56;6.80;99.90
17918;DHT22;9084;50.956;3.106;2023-02-01T00:32:24;6.70;99.90
17918;DHT22;9084;50.956;3.106;2023-02-01T00:34:51;6.70;99.90
17918;DHT22;9084;50.956;3.106;2023-02-01T00:37:16;6.60;99.90
17918;DHT22;9084;50.956;3.106;2023-02-01T00:39:42;6.60;99.90
17918;DHT22;9084;50.956;3.106;2023-02-01T00:42:08;6.50;99.90
17918;DHT22;9084;50.956;3.106;2023-02-01T00:44:34;6.50;99.90
17918;DHT22;9084;50.956;3.106;2023-02-01T00:47:02;6.40;99.90
17918;DHT22;9084;50.956;3.106;2023-02-01T00:49:28;6.30;99.90
17918;DHT22;9084;50.956;3.106;2023-02-01T00:51:54;6.30;99.90
17918;DHT22;9084;50.956;3.106;2023-02-01T00:54:20;6.30;99.90
17918;DHT22;9084;50.956;3.106;2023-02-01T00:56:46;6.30;99.90
17918;DHT22;9084;50.956;3.106;2023-02-01T00:59:11;6.20;99.90
17918;DHT22;9084;50.956;3.106;2023-02-01T01:01:40;6.20;99.90
17918;DHT22;9084;50.956;3.106;2023-02-01T01:04:09;6.20;99.90
17918;DHT22;9084;50.956;3.106;2023-02-01T01:06:37;6.10;99.90
17918;DHT22;9084;50.956;3.106;2023-02-01T01:09:05;6.10;99.90
17918;DHT22;9084;50.956;3.106;2023-02-01T01:11:35;6.10;99.90
17918;DHT22;9084;50.956;3.106;2023-02-01T01:14:04;6.10;99.90
17918;DHT22;9084;50.956;3.106;2023-02-01T01:16:32;6.20;99.90
17918;DHT22;9084;50.956;3.106;2023-02-01T01:18:59;6.20;99.90
17918;DHT22;9084;50.956;3.106;2023-02-01T01:21:25;6.30;99.90
17918;DHT22;9084;50.956;3.106;2023-02-01T01:23:54;6.20;99.90
17918;DHT22;9084;50.956;3.106;2023-02-01T01:26:22;6.20;99.90
17918;DHT22;9084;50.956;3.106;2023-02-01T01:28:51;6.10;99.90
17918;DHT22;9084;50.956;3.106;2023-02-01T01:31:18;6.20;99.90
17918;DHT22;9084;50.956;3.106;2023-02-01T01:33:49;6.10;99.90
17918;DHT22;9084;50.956;3.106;2023-02-01T01:36:18;6.10;99.90
17918;DHT22;9084;50.956;3.106;2023-02-01T01:38:44;6.10;99.90
17918;DHT22;9084;50.956;3.106;2023-02-01T01:41:23;6.20;99.90
17918;DHT22;9084;50.956;3.106;2023-02-01T01:43:55;6.20;99.90
17918;DHT22;9084;50.956;3.106;2023-02-01T01:46:24;6.30;99.90
17918;DHT22;9084;50.956;3.106;2023-02-01T01:48:58;6.30;99.90
17918;DHT22;9084;50.956;3.106;2023-02-01T01:51:26;6.20;99.90
17918;DHT22;9084;50.956;3.106;2023-02-01T01:54:04;6.20;99.90
17918;DHT22;9084;50.956;3.106;2023-02-01T01:56:34;6.10;99.90
17918;DHT22;9084;50.956;3.106;2023-02-01T01:59:00;6.20;99.90
17918;DHT22;9084;50.956;3.106;2023-02-01T02:01:27;6.20;99.90
17918;DHT22;9084;50.956;3.106;2023-02-01T02:03:56;6.20;99.90
17918;DHT22;9084;50.956;3.106;2023-02-01T02:09:06;6.20;99.90
17918;DHT22;9084;50.956;3.106;2023-02-01T02:11:34;6.20;99.90
17918;DHT22;9084;50.956;3.106;2023-02-01T02:14:00;6.20;99.90
17918;DHT22;9084;50.956;3.106;2023-02-01T02:16:38;6.20;99.90
17918;DHT22;9084;50.956;3.106;2023-02-01T02:28:19;6.10;99.90
17918;DHT22;9084;50.956;3.106;2023-02-01T02:47:26;5.90;99.90
17918;DHT22;9084;50.956;3.106;2023-02-01T02:53:13;5.80;99.90
17918;DHT22;9084;50.956;3.106;2023-02-01T02:55:59;5.80;99.90
17918;DHT22;9084;50.956;3.106;2023-02-01T02:58:46;5.80;99.90
17918;DHT22;9084;50.956;3.106;2023-02-01T03:01:31;5.70;99.90
17918;DHT22;9084;50.956;3.106;2023-02-01T03:04:16;5.70;99.90
17918;DHT22;9084;50.956;3.106;2023-02-01T03:06:44;5.70;99.90
17918;DHT22;9084;50.956;3.106;2023-02-01T03:09:36;5.70;99.90
17918;DHT22;9084;50.956;3.106;2023-02-01T03:12:07;5.80;99.90
17918;DHT22;9084;50.956;3.106;2023-02-01T03:15:08;5.70;99.90
17918;DHT22;9084;50.956;3.106;2023-02-01T03:17:42;5.80;99.90
17918;DHT22;9084;50.956;3.106;2023-02-01T03:20:10;5.80;99.90
17918;DHT22;9084;50.956;3.106;2023-02-01T03:22:39;5.80;99.90
17918;DHT22;9084;50.956;3.106;2023-02-01T03:25:12;5.80;99.90
17918;DHT22;9084;50.956;3.106;2023-02-01T03:27:48;5.80;99.90
17918;DHT22;9084;50.956;3.106;2023-02-01T03:32:47;5.80;99.90
17918;DHT22;9084;50.956;3.106;2023-02-01T03:39:05;5.80;99.90
17918;DHT22;9084;50.956;3.106;2023-02-01T03:44:11;5.80;99.90
17918;DHT22;9084;50.956;3.106;2023-02-01T03:49:20;5.80;99.90
17918;DHT22;9084;50.956;3.106;2023-02-01T03:51:50;5.80;99.90
17918;DHT22;9084;50.956;3.106;2023-02-01T03:54:18;5.70;99.90
17918;DHT22;9084;50.956;3.106;2023-02-01T03:56:48;5.70;99.90
17918;DHT22;9084;50.956;3.106;2023-02-01T03:59:15;5.70;99.90
17918;DHT22;9084;50.956;3.106;2023-02-01T04:01:42;5.70;99.90
17918;DHT22;9084;50.956;3.106;2023-02-01T04:04:08;5.70;99.90
17918;DHT22;9084;50.956;3.106;2023-02-01T04:06:35;5.70;99.90
17918;DHT22;9084;50.956;3.106;2023-02-01T04:09:00;5.70;99.90
17918;DHT22;9084;50.956;3.106;2023-02-01T04:11:29;5.60;99.90
17918;DHT22;9084;50.956;3.106;2023-02-01T04:13:57;5.70;99.90
17918;DHT22;9084;50.956;3.106;2023-02-01T04:16:26;5.60;99.90
17918;DHT22;9084;50.956;3.106;2023-02-01T04:18:54;5.60;99.90
17918;DHT22;9084;50.956;3.106;2023-02-01T04:21:20;5.60;99.90
17918;DHT22;9084;50.956;3.106;2023-02-01T04:23:46;5.60;99.90
17918;DHT22;9084;50.956;3.106;2023-02-01T04:26:12;5.60;99.90
17918;DHT22;9084;50.956;3.106;2023-02-01T04:28:38;5.50;99.90
17918;DHT22;9084;50.956;3.106;2023-02-01T04:31:04;5.60;99.90
17918;DHT22;9084;50.956;3.106;2023-02-01T04:33:30;5.50;99.90
17918;DHT22;9084;50.956;3.106;2023-02-01T04:35:57;5.50;99.90
17918;DHT22;9084;50.956;3.106;2023-02-01T04:38:22;5.50;99.90
17918;DHT22;9084;50.956;3.106;2023-02-01T04:40:48;5.50;99.90
17918;DHT22;9084;50.956;3.106;2023-02-01T04:43:16;5.50;99.90
17918;DHT22;9084;50.956;3.106;2023-02-01T04:45:41;5.50;99.90
17918;DHT22;9084;50.956;3.106;2023-02-01T04:48:09;5.50;99.90
17918;DHT22;9084;50.956;3.106;2023-02-01T04:50:35;5.50;99.90
17918;DHT22;9084;50.956;3.106;2023-02-01T04:53:01;5.50;99.90
17918;DHT22;9084;50.956;3.106;2023-02-01T04:55:27;5.50;99.90
17918;DHT22;9084;50.956;3.106;2023-02-01T04:57:56;5.50;99.90
17918;DHT22;9084;50.956;3.106;2023-02-01T05:00:24;5.50;99.90
17918;DHT22;9084;50.956;3.106;2023-02-01T05:02:50;5.50;99.90
17918;DHT22;9084;50.956;3.106;2023-02-01T05:05:16;5.40;99.90
17918;DHT22;9084;50.956;3.106;2023-02-01T05:07:42;5.50;99.90
17918;DHT22;9084;50.956;3.106;2023-02-01T05:10:08;5.50;99.90
17918;DHT22;9084;50.956;3.106;2023-02-01T05:12:34;5.40;99.90
17918;DHT22;9084;50.956;3.106;2023-02-01T05:15:18;5.50;99.90
17918;DHT22;9084;50.956;3.106;2023-02-01T05:17:43;5.40;99.90
17918;DHT22;9084;50.956;3.106;2023-02-01T05:20:13;5.40;99.90
17918;DHT22;9084;50.956;3.106;2023-02-01T05:22:39;5.40;99.90
17918;DHT22;9084;50.956;3.106;2023-02-01T05:25:06;5.40;99.90
17918;DHT22;9084;50.956;3.106;2023-02-01T05:27:32;5.50;99.90
17918;DHT22;9084;50.956;3.106;2023-02-01T05:29:58;5.40;99.90
17918;DHT22;9084;50.956;3.106;2023-02-01T05:32:24;5.40;99.90
17918;DHT22;9084;50.956;3.106;2023-02-01T05:34:50;5.40;99.90
17918;DHT22;9084;50.956;3.106;2023-02-01T05:37:18;5.40;99.90
17918;DHT22;9084;50.956;3.106;2023-02-01T05:39:45;5.40;99.90
17918;DHT22;9084;50.956;3.106;2023-02-01T05:42:13;5.40;99.90
17918;DHT22;9084;50.956;3.106;2023-02-01T05:44:41;5.30;99.90
17918;DHT22;9084;50.956;3.106;2023-02-01T05:47:07;5.30;99.90
17918;DHT22;9084;50.956;3.106;2023-02-01T05:49:35;5.30;99.90
17918;DHT22;9084;50.956;3.106;2023-02-01T05:52:04;5.30;99.90
17918;DHT22;9084;50.956;3.106;2023-02-01T05:54:30;5.30;99.90
17918;DHT22;9084;50.956;3.106;2023-02-01T05:56:58;5.30;99.90
17918;DHT22;9084;50.956;3.106;2023-02-01T05:59:26;5.30;99.90
17918;DHT22;9084;50.956;3.106;2023-02-01T06:01:52;5.30;99.90
17918;DHT22;9084;50.956;3.106;2023-02-01T06:04:18;5.30;99.90
17918;DHT22;9084;50.956;3.106;2023-02-01T06:06:48;5.30;99.90
17918;DHT22;9084;50.956;3.106;2023-02-01T06:09:16;5.20;99.90
17918;DHT22;9084;50.956;3.106;2023-02-01T06:11:44;5.20;99.90
17918;DHT22;9084;50.956;3.106;2023-02-01T06:14:10;5.20;99.90
17918;DHT22;9084;50.956;3.106;2023-02-01T06:16:37;5.20;99.90
17918;DHT22;9084;50.956;3.106;2023-02-01T06:19:04;5.30;99.90
17918;DHT22;9084;50.956;3.106;2023-02-01T06:21:30;5.30;99.90
17918;DHT22;9084;50.956;3.106;2023-02-01T06:23:56;5.30;99.90
17918;DHT22;9084;50.956;3.106;2023-02-01T06:26:23;5.30;99.90
17918;DHT22;9084;50.956;3.106;2023-02-01T06:28:49;5.30;99.90
17918;DHT22;9084;50.956;3.106;2023-02-01T06:31:15;5.30;99.90
17918;DHT22;9084;50.956;3.106;2023-02-01T06:33:41;5.30;99.90
17918;DHT22;9084;50.956;3.106;2023-02-01T06:36:09;5.30;99.90
17918;DHT22;9084;50.956;3.106;2023-02-01T06:38:36;5.30;99.90
17918;DHT22;9084;50.956;3.106;2023-02-01T06:41:03;5.30;99.90
17918;DHT22;9084;50.956;3.106;2023-02-01T06:43:29;5.30;99.90
17918;DHT22;9084;50.956;3.106;2023-02-01T06:46:06;5.30;99.90
17918;DHT22;9084;50.956;3.106;2023-02-01T06:48:35;5.30;99.90
17918;DHT22;9084;50.956;3.106;2023-02-01T06:51:03;5.30;99.90
17918;DHT22;9084;50.956;3.106;2023-02-01T06:53:29;5.30;99.90
17918;DHT22;9084;50.956;3.106;2023-02-01T06:55:58;5.30;99.90
17918;DHT22;9084;50.956;3.106;2023-02-01T06:58:31;5.30;99.90
17918;DHT22;9084;50.956;3.106;2023-02-01T07:00:57;5.30;99.90
17918;DHT22;9084;50.956;3.106;2023-02-01T07:03:23;5.30;99.90
17918;DHT22;9084;50.956;3.106;2023-02-01T07:05:49;5.30;99.90
17918;DHT22;9084;50.956;3.106;2023-02-01T07:08:16;5.30;99.90
17918;DHT22;9084;50.956;3.106;2023-02-01T07:10:41;5.40;99.90
17918;DHT22;9084;50.956;3.106;2023-02-01T07:13:07;5.40;99.90
17918;DHT22;9084;50.956;3.106;2023-02-01T07:15:34;5.40;99.90
17918;DHT22;9084;50.956;3.106;2023-02-01T07:18:02;5.50;99.90
17918;DHT22;9084;50.956;3.106;2023-02-01T07:20:27;5.40;99.90
17918;DHT22;9084;50.956;3.106;2023-02-01T07:22:56;5.40;99.90
17918;DHT22;9084;50.956;3.106;2023-02-01T07:25:23;5.50;99.90
17918;DHT22;9084;50.956;3.106;2023-02-01T07:27:49;5.50;99.90
17918;DHT22;9084;50.956;3.106;2023-02-01T07:30:15;5.50;99.90
17918;DHT22;9084;50.956;3.106;2023-02-01T07:32:41;5.60;99.90
17918;DHT22;9084;50.956;3.106;2023-02-01T07:35:07;5.70;99.90
17918;DHT22;9084;50.956;3.106;2023-02-01T07:37:32;5.70;99.90
17918;DHT22;9084;50.956;3.106;2023-02-01T07:39:59;5.70;99.90
17918;DHT22;9084;50.956;3.106;2023-02-01T07:42:25;5.80;99.90
17918;DHT22;9084;50.956;3.106;2023-02-01T07:44:53;5.80;99.90
17918;DHT22;9084;50.956;3.106;2023-02-01T07:47:21;5.90;99.90
17918;DHT22;9084;50.956;3.106;2023-02-01T07:49:47;5.90;99.90
17918;DHT22;9084;50.956;3.106;2023-02-01T07:52:14;6.00;99.90
17918;DHT22;9084;50.956;3.106;2023-02-01T07:54:43;6.00;99.90
17918;DHT22;9084;50.956;3.106;2023-02-01T07:57:11;6.10;99.90
17918;DHT22;9084;50.956;3.106;2023-02-01T07:59:37;6.10;99.90
17918;DHT22;9084;50.956;3.106;2023-02-01T08:02:25;6.20;99.90
17918;DHT22;9084;50.956;3.106;2023-02-01T08:04:51;6.30;99.90
17918;DHT22;9084;50.956;3.106;2023-02-01T08:07:18;6.30;99.90
17918;DHT22;9084;50.956;3.106;2023-02-01T08:09:44;6.40;99.90
17918;DHT22;9084;50.956;3.106;2023-02-01T08:12:09;6.50;99.90
17918;DHT22;9084;50.956;3.106;2023-02-01T08:14:38;6.50;99.90
17918;DHT22;9084;50.956;3.106;2023-02-01T08:17:06;6.50;99.90
17918;DHT22;9084;50.956;3.106;2023-02-01T08:19:34;6.60;99.90
17918;DHT22;9084;50.956;3.106;2023-02-01T08:22:02;6.70;99.90
17918;DHT22;9084;50.956;3.106;2023-02-01T08:24:32;6.80;99.90
17918;DHT22;9084;50.956;3.106;2023-02-01T08:27:01;6.80;99.90
17918;DHT22;9084;50.956;3.106;2023-02-01T08:29:31;6.80;99.90
17918;DHT22;9084;50.956;3.106;2023-02-01T08:31:57;6.90;99.90
17918;DHT22;9084;50.956;3.106;2023-02-01T08:34:23;6.90;99.90
17918;DHT22;9084;50.956;3.106;2023-02-01T08:36:49;6.90;99.90
17918;DHT22;9084;50.956;3.106;2023-02-01T08:39:21;7.00;99.90
17918;DHT22;9084;50.956;3.106;2023-02-01T08:41:47;7.00;99.90
17918;DHT22;9084;50.956;3.106;2023-02-01T08:44:35;7.00;99.90
17918;DHT22;9084;50.956;3.106;2023-02-01T08:47:04;7.10;99.90
17918;DHT22;9084;50.956;3.106;2023-02-01T08:49:30;7.10;99.90
17918;DHT22;9084;50.956;3.106;2023-02-01T08:51:56;7.10;99.90
17918;DHT22;9084;50.956;3.106;2023-02-01T08:54:22;7.20;99.90
17918;DHT22;9084;50.956;3.106;2023-02-01T08:56:48;7.20;99.90
17918;DHT22;9084;50.956;3.106;2023-02-01T08:59:16;7.30;99.90
17918;DHT22;9084;50.956;3.106;2023-02-01T09:01:42;7.30;99.90
17918;DHT22;9084;50.956;3.106;2023-02-01T09:04:09;7.30;99.90
17918;DHT22;9084;50.956;3.106;2023-02-01T09:06:34;7.40;99.90
17918;DHT22;9084;50.956;3.106;2023-02-01T09:09:00;7.40;99.90
17918;DHT22;9084;50.956;3.106;2023-02-01T09:11:26;7.50;99.90
17918;DHT22;9084;50.956;3.106;2023-02-01T09:13:52;7.50;99.90
17918;DHT22;9084;50.956;3.106;2023-02-01T09:16:20;7.50;99.90
17918;DHT22;9084;50.956;3.106;2023-02-01T09:18:46;7.60;99.90
17918;DHT22;9084;50.956;3.106;2023-02-01T09:21:12;7.60;99.90
17918;DHT22;9084;50.956;3.106;2023-02-01T09:23:37;7.60;99.90
17918;DHT22;9084;50.956;3.106;2023-02-01T09:26:04;7.50;99.90
17918;DHT22;9084;50.956;3.106;2023-02-01T09:28:30;7.50;99.90
17918;DHT22;9084;50.956;3.106;2023-02-01T09:31:00;7.50;99.90
17918;DHT22;9084;50.956;3.106;2023-02-01T09:33:27;7.50;99.90
17918;DHT22;9084;50.956;3.106;2023-02-01T09:35:58;7.60;99.90
17918;DHT22;9084;50.956;3.106;2023-02-01T09:38:25;7.60;99.90
17918;DHT22;9084;50.956;3.106;2023-02-01T09:40:52;7.80;99.90
17918;DHT22;9084;50.956;3.106;2023-02-01T09:43:29;7.90;99.90
17918;DHT22;9084;50.956;3.106;2023-02-01T09:48:43;8.10;95.30
17918;DHT22;9084;50.956;3.106;2023-02-01T09:51:19;8.20;92.60
17918;DHT22;9084;50.956;3.106;2023-02-01T09:54:39;8.30;81.30
17918;DHT22;9084;50.956;3.106;2023-02-01T09:56:47;8.50;77.00
17918;DHT22;9084;50.956;3.106;2023-02-01T10:01:52;8.50;64.50
17918;DHT22;9084;50.956;3.106;2023-02-01T10:04:19;8.50;64.30
17918;DHT22;9084;50.956;3.106;2023-02-01T10:09:23;8.60;55.00
17918;DHT22;9084;50.956;3.106;2023-02-01T10:20:44;8.70;55.00
17918;DHT22;9084;50.956;3.106;2023-02-01T10:26:20;8.90;49.10
17918;DHT22;9084;50.956;3.106;2023-02-01T10:28:50;9.00;40.50
17918;DHT22;9084;50.956;3.106;2023-02-01T10:31:17;9.10;40.10
17918;DHT22;9084;50.956;3.106;2023-02-01T10:33:52;9.10;33.20
17918;DHT22;9084;50.956;3.106;2023-02-01T10:36:42;9.20;29.30
17918;DHT22;9084;50.956;3.106;2023-02-01T10:39:13;9.20;28.80
17918;DHT22;9084;50.956;3.106;2023-02-01T10:41:40;9.30;29.20
17918;DHT22;9084;50.956;3.106;2023-02-01T10:44:20;9.40;21.30
17918;DHT22;9084;50.956;3.106;2023-02-01T10:46:48;9.40;17.50
17918;DHT22;9084;50.956;3.106;2023-02-01T10:49:26;9.40;18.90
17918;DHT22;9084;50.956;3.106;2023-02-01T10:52:14;9.50;14.40
17918;DHT22;9084;50.956;3.106;2023-02-01T10:54:41;9.50;11.50
17918;DHT22;9084;50.956;3.106;2023-02-01T10:57:23;9.50;9.50
17918;DHT22;9084;50.956;3.106;2023-02-01T10:59:55;9.50;6.60
17918;DHT22;9084;50.956;3.106;2023-02-01T11:02:35;9.50;8.50
17918;DHT22;9084;50.956;3.106;2023-02-01T11:05:09;9.50;7.20
17918;DHT22;9084;50.956;3.106;2023-02-01T11:07:36;9.50;5.20
17918;DHT22;9084;50.956;3.106;2023-02-01T11:10:02;9.50;8.90
17918;DHT22;9084;50.956;3.106;2023-02-01T11:12:36;9.50;3.90
17918;DHT22;9084;50.956;3.106;2023-02-01T11:17:46;9.50;1.00
17918;DHT22;9084;50.956;3.106;2023-02-01T11:22:49;9.50;1.00
17918;DHT22;9084;50.956;3.106;2023-02-01T11:25:21;9.60;1.00
17918;DHT22;9084;50.956;3.106;2023-02-01T11:27:50;9.60;1.00
17918;DHT22;9084;50.956;3.106;2023-02-01T11:30:32;9.60;1.00
17918;DHT22;9084;50.956;3.106;2023-02-01T11:33:00;9.60;2.20
17918;DHT22;9084;50.956;3.106;2023-02-01T11:35:29;9.70;1.00
17918;DHT22;9084;50.956;3.106;2023-02-01T11:37:58;9.70;1.00
17918;DHT22;9084;50.956;3.106;2023-02-01T11:40:35;9.70;1.00
17918;DHT22;9084;50.956;3.106;2023-02-01T11:43:25;9.70;1.00
17918;DHT22;9084;50.956;3.106;2023-02-01T11:45:57;9.70;1.00
17918;DHT22;9084;50.956;3.106;2023-02-01T11:48:25;9.70;1.00
17918;DHT22;9084;50.956;3.106;2023-02-01T11:59:19;9.70;1.00
17918;DHT22;9084;50.956;3.106;2023-02-01T12:07:48;9.70;1.00
17918;DHT22;9084;50.956;3.106;2023-02-01T12:10:23;9.70;1.00
17918;DHT22;9084;50.956;3.106;2023-02-01T12:15:57;9.80;1.00
17918;DHT22;9084;50.956;3.106;2023-02-01T12:26:53;9.90;1.00
17918;DHT22;9084;50.956;3.106;2023-02-01T12:30:06;9.90;1.00
17918;DHT22;9084;50.956;3.106;2023-02-01T12:35:19;10.00;1.00
17918;DHT22;9084;50.956;3.106;2023-02-01T12:38:00;9.90;1.00
17918;DHT22;9084;50.956;3.106;2023-02-01T12:43:18;9.90;1.00
17918;DHT22;9084;50.956;3.106;2023-02-01T12:46:04;9.80;1.00
17918;DHT22;9084;50.956;3.106;2023-02-01T12:49:11;9.80;1.00
17918;DHT22;9084;50.956;3.106;2023-02-01T12:51:37;9.80;1.00
17918;DHT22;9084;50.956;3.106;2023-02-01T12:54:15;9.70;1.00
17918;DHT22;9084;50.956;3.106;2023-02-01T12:56:52;9.60;1.00
17918;DHT22;9084;50.956;3.106;2023-02-01T13:02:11;9.70;1.00
17918;DHT22;9084;50.956;3.106;2023-02-01T13:05:03;9.70;1.00
17918;DHT22;9084;50.956;3.106;2023-02-01T13:07:41;9.70;1.00
17918;DHT22;9084;50.956;3.106;2023-02-01T13:10:19;9.80;1.00
17918;DHT22;9084;50.956;3.106;2023-02-01T13:15:30;9.90;1.00
17918;DHT22;9084;50.956;3.106;2023-02-01T13:18:00;10.00;1.00
17918;DHT22;9084;50.956;3.106;2023-02-01T13:21:02;10.00;1.00
17918;DHT22;9084;50.956;3.106;2023-02-01T13:23:29;10.10;1.00
17918;DHT22;9084;50.956;3.106;2023-02-01T13:26:00;10.10;97.60
17918;DHT22;9084;50.956;3.106;2023-02-01T13:28:44;10.20;99.90
17918;DHT22;9084;50.956;3.106;2023-02-01T13:31:47;10.20;99.90
17918;DHT22;9084;50.956;3.106;2023-02-01T13:37:28;10.10;99.90
17918;DHT22;9084;50.956;3.106;2023-02-01T13:40:30;10.00;99.90
17918;DHT22;9084;50.956;3.106;2023-02-01T13:43:06;10.00;99.90
17918;DHT22;9084;50.956;3.106;2023-02-01T13:45:37;10.00;99.90
17918;DHT22;9084;50.956;3.106;2023-02-01T13:48:23;10.10;99.90
17918;DHT22;9084;50.956;3.106;2023-02-01T13:50:55;10.20;99.90
17918;DHT22;9084;50.956;3.106;2023-02-01T13:53:35;10.30;99.90
17918;DHT22;9084;50.956;3.106;2023-02-01T13:56:24;10.50;99.90
17918;DHT22;9084;50.956;3.106;2023-02-01T13:58:50;10.60;99.90
17918;DHT22;9084;50.956;3.106;2023-02-01T14:03:53;10.70;99.90
17918;DHT22;9084;50.956;3.106;2023-02-01T14:11:38;10.80;99.90
17918;DHT22;9084;50.956;3.106;2023-02-01T14:19:35;10.70;99.90
17918;DHT22;9084;50.956;3.106;2023-02-01T14:24:56;10.60;99.90
17918;DHT22;9084;50.956;3.106;2023-02-01T14:27:27;10.50;99.90
17918;DHT22;9084;50.956;3.106;2023-02-01T14:29:58;10.50;99.90
17918;DHT22;9084;50.956;3.106;2023-02-01T14:32:38;10.40;99.90
17918;DHT22;9084;50.956;3.106;2023-02-01T14:35:08;10.40;99.90
17918;DHT22;9084;50.956;3.106;2023-02-01T14:37:44;10.40;99.90
17918;DHT22;9084;50.956;3.106;2023-02-01T15:01:22;10.10;99.90
17918;DHT22;9084;50.956;3.106;2023-02-01T15:04:09;10.10;99.90
17918;DHT22;9084;50.956;3.106;2023-02-01T15:06:37;10.00;99.90
17918;DHT22;9084;50.956;3.106;2023-02-01T15:14:31;9.80;99.90
17918;DHT22;9084;50.956;3.106;2023-02-01T15:16:57;9.80;99.90
17918;DHT22;9084;50.956;3.106;2023-02-01T15:19:26;9.70;99.90
17918;DHT22;9084;50.956;3.106;2023-02-01T15:21:58;9.70;99.90
17918;DHT22;9084;50.956;3.106;2023-02-01T15:24:26;9.60;99.90
17918;DHT22;9084;50.956;3.106;2023-02-01T15:26:53;9.60;99.90
17918;DHT22;9084;50.956;3.106;2023-02-01T15:29:24;9.70;99.90
17918;DHT22;9084;50.956;3.106;2023-02-01T15:31:57;9.60;99.90
17918;DHT22;9084;50.956;3.106;2023-02-01T15:34:48;9.60;99.90
17918;DHT22;9084;50.956;3.106;2023-02-01T15:37:16;9.60;99.90
17918;DHT22;9084;50.956;3.106;2023-02-01T15:42:53;9.60;99.90
17918;DHT22;9084;50.956;3.106;2023-02-01T15:45:28;9.50;99.90
17918;DHT22;9084;50.956;3.106;2023-02-01T15:47:57;9.50;99.90
17918;DHT22;9084;50.956;3.106;2023-02-01T15:50:23;9.50;99.90
17918;DHT22;9084;50.956;3.106;2023-02-01T15:52:53;9.40;99.90
17918;DHT22;9084;50.956;3.106;2023-02-01T15:55:39;9.40;99.90
17918;DHT22;9084;50.956;3.106;2023-02-01T15:58:08;9.40;99.90
17918;DHT22;9084;50.956;3.106;2023-02-01T16:00:53;9.40;99.90
17918;DHT22;9084;50.956;3.106;2023-02-01T16:03:35;9.30;99.90
17918;DHT22;9084;50.956;3.106;2023-02-01T16:06:11;9.30;99.90
17918;DHT22;9084;50.956;3.106;2023-02-01T16:08:49;9.30;99.90
17918;DHT22;9084;50.956;3.106;2023-02-01T16:11:27;9.20;99.90
17918;DHT22;9084;50.956;3.106;2023-02-01T16:13:55;9.20;99.90
17918;DHT22;9084;50.956;3.106;2023-02-01T16:16:26;9.20;99.90
17918;DHT22;9084;50.956;3.106;2023-02-01T16:18:52;9.20;99.90
17918;DHT22;9084;50.956;3.106;2023-02-01T16:21:19;9.20;99.90
17918;DHT22;9084;50.956;3.106;2023-02-01T16:23:50;9.10;99.90
17918;DHT22;9084;50.956;3.106;2023-02-01T16:26:16;9.10;99.90
17918;DHT22;9084;50.956;3.106;2023-02-01T16:28:42;9.10;99.90
17918;DHT22;9084;50.956;3.106;2023-02-01T16:31:12;9.10;99.90
17918;DHT22;9084;50.956;3.106;2023-02-01T16:33:53;9.00;99.90
17918;DHT22;9084;50.956;3.106;2023-02-01T16:36:20;9.00;99.90
17918;DHT22;9084;50.956;3.106;2023-02-01T16:38:46;8.90;99.90
17918;DHT22;9084;50.956;3.106;2023-02-01T16:41:16;8.90;99.90
17918;DHT22;9084;50.956;3.106;2023-02-01T16:43:42;8.90;99.90
17918;DHT22;9084;50.956;3.106;2023-02-01T16:46:19;8.90;99.90
17918;DHT22;9084;50.956;3.106;2023-02-01T16:48:54;8.90;99.90
17918;DHT22;9084;50.956;3.106;2023-02-01T16:51:21;8.90;99.90
17918;DHT22;9084;50.956;3.106;2023-02-01T16:53:51;8.80;99.90
17918;DHT22;9084;50.956;3.106;2023-02-01T16:58:45;8.90;99.90
17918;DHT22;9084;50.956;3.106;2023-02-01T17:01:17;8.90;99.90
17918;DHT22;9084;50.956;3.106;2023-02-01T17:03:43;8.80;99.90
17918;DHT22;9084;50.956;3.106;2023-02-01T17:06:15;8.80;99.90
17918;DHT22;9084;50.956;3.106;2023-02-01T17:08:44;8.80;99.90
17918;DHT22;9084;50.956;3.106;2023-02-01T17:11:12;8.80;99.90
17918;DHT22;9084;50.956;3.106;2023-02-01T17:14:17;8.80;99.90
17918;DHT22;9084;50.956;3.106;2023-02-01T17:16:45;8.80;99.90
17918;DHT22;9084;50.956;3.106;2023-02-01T17:19:21;8.80;99.90
17918;DHT22;9084;50.956;3.106;2023-02-01T17:21:52;8.80;99.90
17918;DHT22;9084;50.956;3.106;2023-02-01T17:24:23;8.80;99.90
17918;DHT22;9084;50.956;3.106;2023-02-01T17:26:50;8.80;99.90
17918;DHT22;9084;50.956;3.106;2023-02-01T17:29:18;8.80;99.90
17918;DHT22;9084;50.956;3.106;2023-02-01T17:31:51;8.80;99.90
17918;DHT22;9084;50.956;3.106;2023-02-01T17:34:17;8.80;99.90
17918;DHT22;9084;50.956;3.106;2023-02-01T17:36:45;8.80;99.90
17918;DHT22;9084;50.956;3.106;2023-02-01T17:39:12;8.80;99.90
17918;DHT22;9084;50.956;3.106;2023-02-01T17:41:59;8.80;99.90
17918;DHT22;9084;50.956;3.106;2023-02-01T17:44:25;8.80;99.90
17918;DHT22;9084;50.956;3.106;2023-02-01T17:46:53;8.80;99.90
17918;DHT22;9084;50.956;3.106;2023-02-01T17:49:22;8.80;99.90
17918;DHT22;9084;50.956;3.106;2023-02-01T17:51:48;8.80;99.90
17918;DHT22;9084;50.956;3.106;2023-02-01T17:54:15;8.80;99.90
17918;DHT22;9084;50.956;3.106;2023-02-01T17:56:42;8.80;99.90
17918;DHT22;9084;50.956;3.106;2023-02-01T17:59:08;8.80;99.90
17918;DHT22;9084;50.956;3.106;2023-02-01T18:01:34;8.80;99.90
17918;DHT22;9084;50.956;3.106;2023-02-01T18:04:01;8.80;99.90
17918;DHT22;9084;50.956;3.106;2023-02-01T18:06:33;8.80;99.90
17918;DHT22;9084;50.956;3.106;2023-02-01T18:09:00;8.80;99.90
17918;DHT22;9084;50.956;3.106;2023-02-01T18:11:25;8.80;99.90
17918;DHT22;9084;50.956;3.106;2023-02-01T18:13:52;8.80;99.90
17918;DHT22;9084;50.956;3.106;2023-02-01T18:16:26;8.80;99.90
17918;DHT22;9084;50.956;3.106;2023-02-01T18:18:53;8.80;99.90
17918;DHT22;9084;50.956;3.106;2023-02-01T18:21:20;8.80;99.90
17918;DHT22;9084;50.956;3.106;2023-02-01T18:23:47;8.80;99.90
17918;DHT22;9084;50.956;3.106;2023-02-01T18:26:16;8.80;99.90
17918;DHT22;9084;50.956;3.106;2023-02-01T18:28:42;8.80;99.90
17918;DHT22;9084;50.956;3.106;2023-02-01T18:31:26;8.80;99.90
17918;DHT22;9084;50.956;3.106;2023-02-01T18:33:55;8.80;99.90
17918;DHT22;9084;50.956;3.106;2023-02-01T18:36:22;8.80;99.90
17918;DHT22;9084;50.956;3.106;2023-02-01T18:38:48;8.80;99.90
17918;DHT22;9084;50.956;3.106;2023-02-01T18:41:19;8.80;99.90
17918;DHT22;9084;50.956;3.106;2023-02-01T18:43:52;8.70;99.90
17918;DHT22;9084;50.956;3.106;2023-02-01T18:46:18;8.80;99.90
17918;DHT22;9084;50.956;3.106;2023-02-01T18:48:44;8.70;99.90
17918;DHT22;9084;50.956;3.106;2023-02-01T18:51:16;8.70;99.90
17918;DHT22;9084;50.956;3.106;2023-02-01T18:53:47;8.80;99.90
17918;DHT22;9084;50.956;3.106;2023-02-01T18:56:14;8.70;99.90
17918;DHT22;9084;50.956;3.106;2023-02-01T18:58:42;8.70;99.90